Map

Track Data

SID SEASON NUMBER BASIN SUBBASIN NAME ISO_TIME NATURE LAT LON WMO_WIND WMO_PRES WMO_AGENCY TRACK_TYPE DIST2LAND LANDFALL IFLAG USA_AGENCY USA_ATCF_ID USA_LAT USA_LON USA_RECORD USA_STATUS USA_WIND USA_PRES USA_SSHS USA_R34_NE USA_R34_SE USA_R34_SW USA_R34_NW USA_R50_NE USA_R50_SE USA_R50_SW USA_R50_NW USA_R64_NE USA_R64_SE USA_R64_SW USA_R64_NW USA_POCI USA_ROCI USA_RMW USA_EYE TOKYO_LAT TOKYO_LON TOKYO_GRADE TOKYO_WIND TOKYO_PRES TOKYO_R50_DIR TOKYO_R50_LONG TOKYO_R50_SHORT TOKYO_R30_DIR TOKYO_R30_LONG TOKYO_R30_SHORT TOKYO_LAND CMA_LAT CMA_LON CMA_CAT CMA_WIND CMA_PRES HKO_LAT HKO_LON HKO_CAT HKO_WIND HKO_PRES NEWDELHI_LAT NEWDELHI_LON NEWDELHI_GRADE NEWDELHI_WIND NEWDELHI_PRES NEWDELHI_CI NEWDELHI_DP NEWDELHI_POCI REUNION_LAT REUNION_LON REUNION_TYPE REUNION_WIND REUNION_PRES REUNION_TNUM REUNION_CI REUNION_RMW REUNION_R34_NE REUNION_R34_SE REUNION_R34_SW REUNION_R34_NW REUNION_R50_NE REUNION_R50_SE REUNION_R50_SW REUNION_R50_NW REUNION_R64_NE REUNION_R64_SE REUNION_R64_SW REUNION_R64_NW BOM_LAT BOM_LON BOM_TYPE BOM_WIND BOM_PRES BOM_TNUM BOM_CI BOM_RMW BOM_R34_NE BOM_R34_SE BOM_R34_SW BOM_R34_NW BOM_R50_NE BOM_R50_SE BOM_R50_SW BOM_R50_NW BOM_R64_NE BOM_R64_SE BOM_R64_SW BOM_R64_NW BOM_ROCI BOM_POCI BOM_EYE BOM_POS_METHOD BOM_PRES_METHOD NADI_LAT NADI_LON NADI_CAT NADI_WIND NADI_PRES WELLINGTON_LAT WELLINGTON_LON WELLINGTON_WIND WELLINGTON_PRES DS824_LAT DS824_LON DS824_STAGE DS824_WIND DS824_PRES TD9636_LAT TD9636_LON TD9636_STAGE TD9636_WIND TD9636_PRES TD9635_LAT TD9635_LON TD9635_WIND TD9635_PRES TD9635_ROCI NEUMANN_LAT NEUMANN_LON NEUMANN_CLASS NEUMANN_WIND NEUMANN_PRES MLC_LAT MLC_LON MLC_CLASS MLC_WIND MLC_PRES USA_GUST BOM_GUST BOM_GUST_PER REUNION_GUST REUNION_GUST_PER USA_SEAHGT USA_SEARAD_NE USA_SEARAD_SE USA_SEARAD_SW USA_SEARAD_NW STORM_SPEED STORM_DIR
1899313N12124 1899 47 WP MM NOT_NAMED 1899-11-08 16:00:00 NR 12.2000 124.000 main 11 10 __________O___ -1 12.2000 124.000 7 4 286
1899313N12124 1899 47 WP MM NOT_NAMED 1899-11-08 18:00:00 NR 12.2354 123.871 main 10 0 __________P___ -1 12.2354 123.871 7 4 285
1899313N12124 1899 47 WP MM NOT_NAMED 1899-11-08 21:00:00 NR 12.2877 123.664 main 10 0 __________P___ -1 12.2877 123.664 7 5 283
1899313N12124 1899 47 WP MM NOT_NAMED 1899-11-09 00:00:00 NR 12.3381 123.420 main 0 0 __________P___ -1 12.3381 123.420 7 5 280
1899313N12124 1899 47 WP MM NOT_NAMED 1899-11-09 03:00:00 NR 12.3852 123.118 main 21 21 __________P___ -1 12.3852 123.118 7 6 279
1899313N12124 1899 47 WP MM NOT_NAMED 1899-11-09 04:00:00 NR 12.4000 123.000 main 31 31 __________O___ -1 12.4000 123.000 7 7 277
1899313N12124 1899 47 WP MM NOT_NAMED 1899-11-09 06:00:00 NR 12.4287 122.737 main 58 58 __________P___ -1 12.4287 122.737 7 8 276
1899313N12124 1899 47 WP MM NOT_NAMED 1899-11-09 09:00:00 NR 12.4775 122.286 main 76 24 __________P___ -1 12.4775 122.286 7 9 277
1899313N12124 1899 47 WP MM NOT_NAMED 1899-11-09 12:00:00 NR 12.5473 121.790 main 24 0 __________P___ -1 12.5473 121.790 7 10 280
1899313N12124 1899 47 WP MM NOT_NAMED 1899-11-09 15:00:00 NR 12.6537 121.273 main 0 0 __________P___ -1 12.6537 121.273 7 10 283
1899313N12124 1899 47 WP MM NOT_NAMED 1899-11-09 16:00:00 NR 12.7000 121.100 main 0 0 __________O___ -1 12.7000 121.100 7 10 288
1899313N12124 1899 47 WP MM NOT_NAMED 1899-11-09 18:00:00 NR 12.8183 120.765 main 0 10 __________P___ -1 12.8183 120.765 7 11 292
1899313N12124 1899 47 WP MM NOT_NAMED 1899-11-09 21:00:00 NR 13.0338 120.255 main 31 34 __________P___ -1 13.0338 120.255 7 11 295
1899313N12124 1899 47 WP MM NOT_NAMED 1899-11-10 00:00:00 NR 13.2753 119.749 main 65 65 __________P___ -1 13.2753 119.749 7 11 297
1899313N12124 1899 47 WP MM NOT_NAMED 1899-11-10 03:00:00 NR 13.5210 119.258 main 108 119 __________P___ -1 13.5210 119.258 7 11 297
1899313N12124 1899 47 WP MM NOT_NAMED 1899-11-10 04:00:00 NR 13.6000 119.100 main 131 131 __________O___ -1 13.6000 119.100 7 10 295
1899313N12124 1899 47 WP MM NOT_NAMED 1899-11-10 06:00:00 NR 13.7362 118.794 main 165 165 __________P___ -1 13.7362 118.794 7 10 295
1899313N12124 1899 47 WP MM NOT_NAMED 1899-11-10 09:00:00 NR 13.9343 118.354 main 209 213 __________P___ -1 13.9343 118.354 7 9 295
1899313N12124 1899 47 WP MM NOT_NAMED 1899-11-10 12:00:00 NR 14.1305 117.934 main 249 246 __________P___ -1 14.1305 117.934 7 9 296
1899313N12124 1899 47 WP MM NOT_NAMED 1899-11-10 15:00:00 NR 14.3311 117.531 main 285 281 __________P___ -1 14.3311 117.531 7 9 298
1899313N12124 1899 47 WP MM NOT_NAMED 1899-11-10 16:00:00 NR 14.4000 117.400 main 291 291 __________O___ -1 14.4000 117.400 7 9 298
1899313N12124 1899 47 WP MM NOT_NAMED 1899-11-10 18:00:00 NR 14.5469 117.120 main 317 313 __________P___ -1 14.5469 117.120 7 9 299
1899313N12124 1899 47 WP MM NOT_NAMED 1899-11-10 21:00:00 NR 14.7737 116.713 main 348 348 __________P___ -1 14.7737 116.713 7 9 301
1899313N12124 1899 47 WP MM NOT_NAMED 1899-11-11 00:00:00 NR 15.0025 116.334 main 381 378 __________P___ -1 15.0025 116.334 7 8 303
1899313N12124 1899 47 WP MM NOT_NAMED 1899-11-11 03:00:00 NR 15.2271 115.999 main 406 403 __________P___ -1 15.2271 115.999 7 8 305
1899313N12124 1899 47 WP MM NOT_NAMED 1899-11-11 04:00:00 NR 15.3000 115.900 main 414 414 __________O___ -1 15.3000 115.900 4 7 308
1899313N12124 1899 47 WP MM NOT_NAMED 1899-11-11 06:00:00 NR 15.4335 115.724 main 433 431 __________P___ -1 15.4335 115.724 4 6 311
1899313N12124 1899 47 WP MM NOT_NAMED 1899-11-11 09:00:00 NR 15.6276 115.504 main 451 450 __________P___ -1 15.6276 115.504 4 6 315
1899313N12124 1899 47 WP MM NOT_NAMED 1899-11-11 12:00:00 NR 15.8226 115.320 main 471 470 __________P___ -1 15.8226 115.320 4 5 320
1899313N12124 1899 47 WP MM NOT_NAMED 1899-11-11 15:00:00 NR 16.0278 115.155 main 481 491 __________P___ -1 16.0278 115.155 4 5 323
1899313N12124 1899 47 WP MM NOT_NAMED 1899-11-11 16:00:00 NR 16.1000 115.100 main 491 491 __________O___ -1 16.1000 115.100 4 6 321
1899313N12124 1899 47 WP MM NOT_NAMED 1899-11-11 18:00:00 NR 16.2526 114.967 main 503 503 __________P___ -1 16.2526 114.967 4 6 322
1899313N12124 1899 47 WP MM NOT_NAMED 1899-11-11 21:00:00 NR 16.4941 114.774 main 523 493 __________P___ -1 16.4941 114.774 4 6 324
1899313N12124 1899 47 WP MM NOT_NAMED 1899-11-12 00:00:00 NR 16.7479 114.596 main 493 459 __________P___ -1 16.7479 114.596 4 6 328
1899313N12124 1899 47 WP MM NOT_NAMED 1899-11-12 03:00:00 NR 17.0109 114.444 main 459 454 __________P___ -1 17.0109 114.444 4 6 332
1899313N12124 1899 47 WP MM NOT_NAMED 1899-11-12 04:00:00 NR 17.1000 114.400 main 454 432 __________O___ -1 17.1000 114.400 4 6 338
1899313N12124 1899 47 WP MM NOT_NAMED 1899-11-12 06:00:00 NR 17.2802 114.327 main 432 404 __________P___ -1 17.2802 114.327 4 6 342
1899313N12124 1899 47 WP MM NOT_NAMED 1899-11-12 09:00:00 NR 17.5569 114.243 main 404 392 __________P___ -1 17.5569 114.243 4 6 346
1899313N12124 1899 47 WP MM NOT_NAMED 1899-11-12 12:00:00 NR 17.8357 114.178 main 392 366 __________P___ -1 17.8357 114.178 4 6 348
1899313N12124 1899 47 WP MM NOT_NAMED 1899-11-12 15:00:00 NR 18.1104 114.120 main 366 361 __________P___ -1 18.1104 114.120 4 6 347
1899313N12124 1899 47 WP MM NOT_NAMED 1899-11-12 16:00:00 NR 18.2000 114.100 main 361 352 __________O___ -1 18.2000 114.100 4 5 347
1899313N12124 1899 47 WP MM NOT_NAMED 1899-11-12 18:00:00 NR 18.3752 114.057 main 352 334 __________P___ -1 18.3752 114.057 4 5 345
1899313N12124 1899 47 WP MM NOT_NAMED 1899-11-12 21:00:00 NR 18.6296 113.986 main 334 314 __________P___ -1 18.6296 113.986 4 5 344
1899313N12124 1899 47 WP MM NOT_NAMED 1899-11-13 00:00:00 NR 18.8766 113.908 main 314 299 __________P___ -1 18.8766 113.908 4 5 343
1899313N12124 1899 47 WP MM NOT_NAMED 1899-11-13 03:00:00 NR 19.1195 113.827 main 299 297 __________P___ -1 19.1195 113.827 4 5 342
1899313N12124 1899 47 WP MM NOT_NAMED 1899-11-13 04:00:00 NR 19.2000 113.800 main 297 __________O___ -1 19.2000 113.800 4 5 0

Digital Typhoon Data and Search

About IBTrACS Database

This database is a web-friendly format of International Best Track Archive for Climate Stewardship (IBTrACS), a global best track data archive curated by NOAA dating back to 1842.

Updated: 2021-11-26